sensor_id;sensor_type;location;lat;lon;timestamp;pressure;altitude;pressure_sealevel;temperature;humidity
73518;BME280;61766;60.318;25.044;2024-02-26T00:01:27;101147.41;;;3.83;40.78
73518;BME280;61766;60.318;25.044;2024-02-26T00:03:53;101143.07;;;4.15;40.55
73518;BME280;61766;60.318;25.044;2024-02-26T00:06:19;101144.19;;;4.09;40.70
73518;BME280;61766;60.318;25.044;2024-02-26T00:08:44;101139.87;;;4.11;40.54
73518;BME280;61766;60.318;25.044;2024-02-26T00:11:09;101136.14;;;3.97;40.74
73518;BME280;61766;60.318;25.044;2024-02-26T00:13:35;101133.65;;;4.17;40.74
73518;BME280;61766;60.318;25.044;2024-02-26T00:16:00;101135.98;;;4.01;40.74
73518;BME280;61766;60.318;25.044;2024-02-26T00:18:25;101137.32;;;4.11;40.45
73518;BME280;61766;60.318;25.044;2024-02-26T00:20:51;101139.28;;;4.41;40.23
73518;BME280;61766;60.318;25.044;2024-02-26T00:23:18;101138.14;;;4.40;40.14
73518;BME280;61766;60.318;25.044;2024-02-26T00:25:41;101134.94;;;4.10;40.31
73518;BME280;61766;60.318;25.044;2024-02-26T00:28:07;101133.11;;;4.12;40.36
73518;BME280;61766;60.318;25.044;2024-02-26T00:30:32;101134.82;;;4.18;40.17
73518;BME280;61766;60.318;25.044;2024-02-26T00:32:57;101136.36;;;4.24;40.04
73518;BME280;61766;60.318;25.044;2024-02-26T00:35:23;101129.66;;;4.29;40.02
73518;BME280;61766;60.318;25.044;2024-02-26T00:37:48;101127.32;;;4.09;39.97
73518;BME280;61766;60.318;25.044;2024-02-26T00:40:14;101119.47;;;4.36;39.92
73518;BME280;61766;60.318;25.044;2024-02-26T00:42:39;101117.10;;;4.14;39.65
73518;BME280;61766;60.318;25.044;2024-02-26T00:45:05;101108.23;;;4.41;39.77
73518;BME280;61766;60.318;25.044;2024-02-26T00:47:31;101103.95;;;4.19;39.78
73518;BME280;61766;60.318;25.044;2024-02-26T00:49:56;101104.76;;;4.44;39.52
73518;BME280;61766;60.318;25.044;2024-02-26T00:52:22;101105.29;;;4.44;39.54
73518;BME280;61766;60.318;25.044;2024-02-26T00:54:47;101107.12;;;3.94;39.56
73518;BME280;61766;60.318;25.044;2024-02-26T00:57:12;101113.81;;;4.18;39.49
73518;BME280;61766;60.318;25.044;2024-02-26T00:59:37;101120.67;;;4.44;39.62
73518;BME280;61766;60.318;25.044;2024-02-26T01:02:03;101120.86;;;4.44;39.58
73518;BME280;61766;60.318;25.044;2024-02-26T01:04:28;101118.06;;;4.44;39.58
73518;BME280;61766;60.318;25.044;2024-02-26T01:06:54;101112.41;;;4.34;39.72
73518;BME280;61766;60.318;25.044;2024-02-26T01:09:19;101106.80;;;4.30;39.64
73518;BME280;61766;60.318;25.044;2024-02-26T01:11:44;101104.02;;;4.30;39.81
73518;BME280;61766;60.318;25.044;2024-02-26T01:14:09;101103.51;;;4.28;39.82
73518;BME280;61766;60.318;25.044;2024-02-26T01:16:34;101100.67;;;4.31;39.92
73518;BME280;61766;60.318;25.044;2024-02-26T01:19:00;101096.39;;;4.24;39.99
73518;BME280;61766;60.318;25.044;2024-02-26T01:21:25;101093.90;;;4.01;39.99
73518;BME280;61766;60.318;25.044;2024-02-26T01:23:51;101093.80;;;4.04;39.90
73518;BME280;61766;60.318;25.044;2024-02-26T01:26:16;101091.91;;;4.06;39.76
73518;BME280;61766;60.318;25.044;2024-02-26T01:28:42;101090.98;;;4.25;39.81
73518;BME280;61766;60.318;25.044;2024-02-26T01:31:09;101086.15;;;4.25;39.96
73518;BME280;61766;60.318;25.044;2024-02-26T01:33:32;101084.10;;;4.04;39.93
73518;BME280;61766;60.318;25.044;2024-02-26T01:35:58;101077.56;;;4.28;40.05
73518;BME280;61766;60.318;25.044;2024-02-26T01:38:23;101075.92;;;4.28;40.05
73518;BME280;61766;60.318;25.044;2024-02-26T01:40:49;101072.74;;;4.32;40.22
73518;BME280;61766;60.318;25.044;2024-02-26T01:43:15;101073.59;;;4.39;40.37
73518;BME280;61766;60.318;25.044;2024-02-26T01:45:40;101075.08;;;4.09;40.79
73518;BME280;61766;60.318;25.044;2024-02-26T01:48:06;101074.69;;;4.18;40.62
73518;BME280;61766;60.318;25.044;2024-02-26T01:50:32;101073.09;;;4.19;40.68
73518;BME280;61766;60.318;25.044;2024-02-26T01:52:57;101079.51;;;4.03;40.45
73518;BME280;61766;60.318;25.044;2024-02-26T01:55:23;101077.28;;;4.34;40.43
73518;BME280;61766;60.318;25.044;2024-02-26T01:57:49;101072.66;;;4.19;40.47
73518;BME280;61766;60.318;25.044;2024-02-26T02:00:13;101070.34;;;4.44;40.33
73518;BME280;61766;60.318;25.044;2024-02-26T02:02:38;101069.74;;;4.47;40.17
73518;BME280;61766;60.318;25.044;2024-02-26T02:05:04;101068.78;;;4.50;40.33
73518;BME280;61766;60.318;25.044;2024-02-26T02:07:29;101066.65;;;4.29;40.03
73518;BME280;61766;60.318;25.044;2024-02-26T02:09:55;101068.42;;;4.48;40.21
73518;BME280;61766;60.318;25.044;2024-02-26T02:12:21;101071.50;;;4.30;40.13
73518;BME280;61766;60.318;25.044;2024-02-26T02:14:46;101076.05;;;4.32;40.13
73518;BME280;61766;60.318;25.044;2024-02-26T02:17:11;101076.27;;;4.22;40.60
73518;BME280;61766;60.318;25.044;2024-02-26T02:19:36;101078.07;;;4.31;41.83
73518;BME280;61766;60.318;25.044;2024-02-26T02:22:02;101068.93;;;4.27;41.13
73518;BME280;61766;60.318;25.044;2024-02-26T02:24:27;101067.67;;;4.57;40.80
73518;BME280;61766;60.318;25.044;2024-02-26T02:26:53;101065.34;;;4.37;40.59
73518;BME280;61766;60.318;25.044;2024-02-26T02:29:19;101064.98;;;4.64;40.38
73518;BME280;61766;60.318;25.044;2024-02-26T02:31:44;101066.31;;;4.64;40.08
73518;BME280;61766;60.318;25.044;2024-02-26T02:34:10;101065.59;;;4.33;40.11
73518;BME280;61766;60.318;25.044;2024-02-26T02:39:01;101061.62;;;4.30;39.99
73518;BME280;61766;60.318;25.044;2024-02-26T02:41:26;101061.59;;;4.47;39.88
73518;BME280;61766;60.318;25.044;2024-02-26T02:43:51;101072.52;;;3.95;39.92
73518;BME280;61766;60.318;25.044;2024-02-26T02:46:17;101074.27;;;4.39;40.16
73518;BME280;61766;60.318;25.044;2024-02-26T02:48:44;101077.07;;;4.39;40.25
73518;BME280;61766;60.318;25.044;2024-02-26T02:51:08;101073.89;;;4.16;39.91
73518;BME280;61766;60.318;25.044;2024-02-26T02:53:34;101073.56;;;4.24;40.21
73518;BME280;61766;60.318;25.044;2024-02-26T02:55:59;101073.57;;;4.22;40.32
73518;BME280;61766;60.318;25.044;2024-02-26T02:58:24;101069.14;;;4.11;40.61
73518;BME280;61766;60.318;25.044;2024-02-26T03:00:51;101069.86;;;4.07;40.82
73518;BME280;61766;60.318;25.044;2024-02-26T03:03:16;101071.51;;;4.04;41.89
73518;BME280;61766;60.318;25.044;2024-02-26T03:05:41;101072.71;;;4.08;42.27
73518;BME280;61766;60.318;25.044;2024-02-26T03:08:07;101070.64;;;4.18;41.93
73518;BME280;61766;60.318;25.044;2024-02-26T03:10:33;101072.72;;;4.19;42.67
73518;BME280;61766;60.318;25.044;2024-02-26T03:12:59;101078.90;;;3.46;45.45
73518;BME280;61766;60.318;25.044;2024-02-26T03:15:24;101080.53;;;3.88;44.95
73518;BME280;61766;60.318;25.044;2024-02-26T03:17:49;101073.13;;;3.87;45.10
73518;BME280;61766;60.318;25.044;2024-02-26T03:20:15;101077.81;;;4.12;44.47
73518;BME280;61766;60.318;25.044;2024-02-26T03:22:41;101085.99;;;3.36;46.74
73518;BME280;61766;60.318;25.044;2024-02-26T03:25:07;101086.11;;;3.71;45.82
73518;BME280;61766;60.318;25.044;2024-02-26T03:27:32;101088.89;;;4.13;45.95
73518;BME280;61766;60.318;25.044;2024-02-26T03:29:57;101088.83;;;3.64;46.30
73518;BME280;61766;60.318;25.044;2024-02-26T03:32:23;101086.75;;;3.90;46.66
73518;BME280;61766;60.318;25.044;2024-02-26T03:34:48;101087.68;;;3.80;46.81
73518;BME280;61766;60.318;25.044;2024-02-26T03:37:14;101091.92;;;3.34;47.52
73518;BME280;61766;60.318;25.044;2024-02-26T03:39:40;101088.98;;;3.68;46.72
73518;BME280;61766;60.318;25.044;2024-02-26T03:42:05;101092.22;;;3.38;46.87
73518;BME280;61766;60.318;25.044;2024-02-26T03:44:30;101094.57;;;3.92;46.51
73518;BME280;61766;60.318;25.044;2024-02-26T03:46:56;101091.62;;;3.86;46.58
73518;BME280;61766;60.318;25.044;2024-02-26T03:49:22;101090.89;;;3.89;46.42
73518;BME280;61766;60.318;25.044;2024-02-26T03:51:47;101091.04;;;3.50;47.05
73518;BME280;61766;60.318;25.044;2024-02-26T03:54:13;101084.85;;;4.26;46.07
73518;BME280;61766;60.318;25.044;2024-02-26T03:56:39;101083.00;;;3.86;46.70
73518;BME280;61766;60.318;25.044;2024-02-26T03:59:04;101085.58;;;3.75;47.16
73518;BME280;61766;60.318;25.044;2024-02-26T04:01:30;101090.22;;;4.37;46.36
73518;BME280;61766;60.318;25.044;2024-02-26T04:03:55;101101.43;;;3.64;47.03
73518;BME280;61766;60.318;25.044;2024-02-26T04:06:21;101107.97;;;3.22;48.20
73518;BME280;61766;60.318;25.044;2024-02-26T04:08:46;101106.77;;;2.98;48.66
73518;BME280;61766;60.318;25.044;2024-02-26T04:11:12;101104.58;;;2.93;49.30
73518;BME280;61766;60.318;25.044;2024-02-26T04:13:37;101115.20;;;2.40;50.30
73518;BME280;61766;60.318;25.044;2024-02-26T04:16:02;101113.45;;;2.47;51.16
73518;BME280;61766;60.318;25.044;2024-02-26T04:18:28;101101.97;;;3.24;49.56
73518;BME280;61766;60.318;25.044;2024-02-26T04:20:53;101103.69;;;2.48;50.48
73518;BME280;61766;60.318;25.044;2024-02-26T04:23:18;101107.04;;;2.61;50.51
73518;BME280;61766;60.318;25.044;2024-02-26T04:25:44;101098.55;;;3.24;49.22
73518;BME280;61766;60.318;25.044;2024-02-26T04:28:10;101099.44;;;3.70;48.17
73518;BME280;61766;60.318;25.044;2024-02-26T04:30:35;101090.31;;;3.89;47.95
73518;BME280;61766;60.318;25.044;2024-02-26T04:33:01;101092.24;;;4.09;47.04
73518;BME280;61766;60.318;25.044;2024-02-26T04:35:26;101080.77;;;4.33;46.51
73518;BME280;61766;60.318;25.044;2024-02-26T04:37:52;101077.23;;;4.55;46.07
73518;BME280;61766;60.318;25.044;2024-02-26T04:40:18;101075.62;;;4.38;45.80
73518;BME280;61766;60.318;25.044;2024-02-26T04:42:43;101076.09;;;4.07;45.97
73518;BME280;61766;60.318;25.044;2024-02-26T04:45:09;101075.24;;;4.22;45.93
73518;BME280;61766;60.318;25.044;2024-02-26T04:47:35;101071.34;;;4.32;45.09
73518;BME280;61766;60.318;25.044;2024-02-26T04:50:01;101070.44;;;4.56;44.99
73518;BME280;61766;60.318;25.044;2024-02-26T04:52:26;101070.51;;;4.88;44.86
73518;BME280;61766;60.318;25.044;2024-02-26T04:54:51;101069.15;;;4.99;44.68
73518;BME280;61766;60.318;25.044;2024-02-26T04:57:17;101064.59;;;4.56;44.82
73518;BME280;61766;60.318;25.044;2024-02-26T04:59:42;101063.45;;;4.92;44.99
73518;BME280;61766;60.318;25.044;2024-02-26T05:02:07;101061.19;;;4.17;45.36
73518;BME280;61766;60.318;25.044;2024-02-26T05:04:33;101062.01;;;4.40;46.07
73518;BME280;61766;60.318;25.044;2024-02-26T05:06:58;101060.03;;;4.45;46.11
73518;BME280;61766;60.318;25.044;2024-02-26T05:09:24;101065.33;;;4.24;46.50
73518;BME280;61766;60.318;25.044;2024-02-26T05:11:50;101058.78;;;4.23;46.14
73518;BME280;61766;60.318;25.044;2024-02-26T05:14:16;101064.90;;;3.85;46.88
73518;BME280;61766;60.318;25.044;2024-02-26T05:16:41;101063.60;;;4.56;46.55
73518;BME280;61766;60.318;25.044;2024-02-26T05:19:07;101061.89;;;3.92;46.94
73518;BME280;61766;60.318;25.044;2024-02-26T05:21:33;101061.37;;;4.07;46.77
73518;BME280;61766;60.318;25.044;2024-02-26T05:23:58;101060.35;;;3.83;47.37
73518;BME280;61766;60.318;25.044;2024-02-26T05:26:24;101054.52;;;4.12;47.22
73518;BME280;61766;60.318;25.044;2024-02-26T05:28:49;101060.34;;;3.54;47.85
73518;BME280;61766;60.318;25.044;2024-02-26T05:31:16;101064.38;;;3.36;48.37
73518;BME280;61766;60.318;25.044;2024-02-26T05:33:40;101068.26;;;3.63;48.38
73518;BME280;61766;60.318;25.044;2024-02-26T05:36:06;101070.87;;;2.65;49.68
73518;BME280;61766;60.318;25.044;2024-02-26T05:38:31;101070.93;;;3.34;48.95
73518;BME280;61766;60.318;25.044;2024-02-26T05:40:57;101074.28;;;3.06;48.97
73518;BME280;61766;60.318;25.044;2024-02-26T05:43:22;101068.69;;;3.51;48.67
73518;BME280;61766;60.318;25.044;2024-02-26T05:45:48;101062.30;;;3.69;49.03
73518;BME280;61766;60.318;25.044;2024-02-26T05:48:13;101061.82;;;3.62;48.66
73518;BME280;61766;60.318;25.044;2024-02-26T05:50:39;101057.84;;;4.12;48.20
73518;BME280;61766;60.318;25.044;2024-02-26T05:53:05;101056.96;;;3.94;47.90
73518;BME280;61766;60.318;25.044;2024-02-26T05:55:30;101059.86;;;3.71;47.89
73518;BME280;61766;60.318;25.044;2024-02-26T05:57:55;101051.30;;;3.98;47.93
73518;BME280;61766;60.318;25.044;2024-02-26T06:00:22;101057.45;;;3.73;47.97
73518;BME280;61766;60.318;25.044;2024-02-26T06:02:47;101056.10;;;3.87;47.88
73518;BME280;61766;60.318;25.044;2024-02-26T06:05:12;101053.57;;;4.17;47.08
73518;BME280;61766;60.318;25.044;2024-02-26T06:07:38;101053.31;;;4.11;46.87
73518;BME280;61766;60.318;25.044;2024-02-26T06:10:03;101050.55;;;4.41;46.86
73518;BME280;61766;60.318;25.044;2024-02-26T06:12:29;101049.37;;;4.07;46.95
73518;BME280;61766;60.318;25.044;2024-02-26T06:14:54;101053.50;;;4.01;47.00
73518;BME280;61766;60.318;25.044;2024-02-26T06:17:19;101053.52;;;3.72;47.50
73518;BME280;61766;60.318;25.044;2024-02-26T06:19:45;101055.51;;;3.51;48.41
73518;BME280;61766;60.318;25.044;2024-02-26T06:22:11;101051.21;;;3.74;48.18
73518;BME280;61766;60.318;25.044;2024-02-26T06:24:36;101059.19;;;3.12;49.02
73518;BME280;61766;60.318;25.044;2024-02-26T06:27:02;101057.93;;;3.90;48.70
73518;BME280;61766;60.318;25.044;2024-02-26T06:29:27;101058.53;;;3.79;49.01
73518;BME280;61766;60.318;25.044;2024-02-26T06:31:53;101055.22;;;3.62;48.78
73518;BME280;61766;60.318;25.044;2024-02-26T06:34:18;101052.14;;;3.86;48.35
73518;BME280;61766;60.318;25.044;2024-02-26T06:36:44;101051.90;;;3.89;48.37
73518;BME280;61766;60.318;25.044;2024-02-26T06:39:09;101050.81;;;3.79;48.44
73518;BME280;61766;60.318;25.044;2024-02-26T06:41:34;101050.32;;;3.49;48.63
73518;BME280;61766;60.318;25.044;2024-02-26T06:44:00;101049.04;;;3.65;48.87
73518;BME280;61766;60.318;25.044;2024-02-26T06:46:25;101046.90;;;3.51;49.14
73518;BME280;61766;60.318;25.044;2024-02-26T06:48:51;101052.68;;;3.43;49.60
73518;BME280;61766;60.318;25.044;2024-02-26T06:51:15;101045.71;;;3.73;49.09
73518;BME280;61766;60.318;25.044;2024-02-26T06:53:41;101039.96;;;3.70;48.54
73518;BME280;61766;60.318;25.044;2024-02-26T06:56:06;101041.00;;;4.00;48.39
73518;BME280;61766;60.318;25.044;2024-02-26T06:58:31;101046.72;;;3.32;49.21
73518;BME280;61766;60.318;25.044;2024-02-26T07:00:57;101046.79;;;3.25;49.59
73518;BME280;61766;60.318;25.044;2024-02-26T07:03:22;101047.75;;;3.91;48.91
73518;BME280;61766;60.318;25.044;2024-02-26T07:05:47;101047.16;;;3.82;49.17
73518;BME280;61766;60.318;25.044;2024-02-26T07:08:12;101042.71;;;3.90;48.45
73518;BME280;61766;60.318;25.044;2024-02-26T07:10:38;101035.86;;;4.40;48.14
73518;BME280;61766;60.318;25.044;2024-02-26T07:13:03;101033.57;;;4.37;47.63
73518;BME280;61766;60.318;25.044;2024-02-26T07:15:28;101035.14;;;4.45;47.75
73518;BME280;61766;60.318;25.044;2024-02-26T07:17:53;101033.29;;;4.22;47.59
73518;BME280;61766;60.318;25.044;2024-02-26T07:20:19;101034.70;;;4.37;47.34
73518;BME280;61766;60.318;25.044;2024-02-26T07:22:44;101039.08;;;4.43;47.67
73518;BME280;61766;60.318;25.044;2024-02-26T07:25:09;101038.56;;;4.64;47.41
73518;BME280;61766;60.318;25.044;2024-02-26T07:27:34;101036.53;;;4.46;47.65
73518;BME280;61766;60.318;25.044;2024-02-26T07:29:59;101035.36;;;4.42;46.98
73518;BME280;61766;60.318;25.044;2024-02-26T07:32:24;101027.96;;;4.90;46.88
73518;BME280;61766;60.318;25.044;2024-02-26T07:34:50;101028.90;;;4.77;47.29
73518;BME280;61766;60.318;25.044;2024-02-26T07:37:15;101028.39;;;4.28;48.26
73518;BME280;61766;60.318;25.044;2024-02-26T07:39:40;101025.14;;;4.43;48.03
73518;BME280;61766;60.318;25.044;2024-02-26T07:42:06;101028.62;;;4.60;47.69
73518;BME280;61766;60.318;25.044;2024-02-26T07:44:31;101026.10;;;4.21;47.85
73518;BME280;61766;60.318;25.044;2024-02-26T07:46:56;101020.66;;;3.88;48.48
73518;BME280;61766;60.318;25.044;2024-02-26T07:49:21;101019.80;;;4.66;47.56
73518;BME280;61766;60.318;25.044;2024-02-26T07:51:46;101018.71;;;4.60;47.27
73518;BME280;61766;60.318;25.044;2024-02-26T07:54:11;101020.59;;;4.24;48.08
73518;BME280;61766;60.318;25.044;2024-02-26T07:56:37;101019.87;;;4.79;46.70
73518;BME280;61766;60.318;25.044;2024-02-26T07:59:02;101019.45;;;4.91;46.92
73518;BME280;61766;60.318;25.044;2024-02-26T08:01:27;101020.28;;;4.78;47.26
73518;BME280;61766;60.318;25.044;2024-02-26T08:03:53;101029.77;;;4.37;47.69
73518;BME280;61766;60.318;25.044;2024-02-26T08:06:19;101032.17;;;4.19;48.01
73518;BME280;61766;60.318;25.044;2024-02-26T08:08:43;101025.33;;;4.96;47.40
73518;BME280;61766;60.318;25.044;2024-02-26T08:11:08;101016.33;;;4.25;48.31
73518;BME280;61766;60.318;25.044;2024-02-26T08:13:33;101006.37;;;4.73;47.81
73518;BME280;61766;60.318;25.044;2024-02-26T08:15:59;100996.87;;;4.15;49.01
73518;BME280;61766;60.318;25.044;2024-02-26T08:18:24;100993.81;;;4.23;48.93
73518;BME280;61766;60.318;25.044;2024-02-26T08:20:49;100990.02;;;4.33;48.75
73518;BME280;61766;60.318;25.044;2024-02-26T08:23:14;100994.64;;;3.92;50.09
73518;BME280;61766;60.318;25.044;2024-02-26T08:25:40;100997.77;;;3.80;49.96
73518;BME280;61766;60.318;25.044;2024-02-26T08:28:05;100997.80;;;4.28;49.47
73518;BME280;61766;60.318;25.044;2024-02-26T08:30:30;100999.09;;;4.09;49.45
73518;BME280;61766;60.318;25.044;2024-02-26T08:32:55;101000.89;;;4.20;49.43
73518;BME280;61766;60.318;25.044;2024-02-26T08:35:20;101000.92;;;4.27;49.53
73518;BME280;61766;60.318;25.044;2024-02-26T08:37:47;101004.93;;;4.36;49.22
73518;BME280;61766;60.318;25.044;2024-02-26T08:40:11;101005.96;;;4.32;49.22
73518;BME280;61766;60.318;25.044;2024-02-26T08:42:36;101012.93;;;4.12;49.92
73518;BME280;61766;60.318;25.044;2024-02-26T08:45:01;101021.60;;;3.87;49.65
73518;BME280;61766;60.318;25.044;2024-02-26T08:47:26;101021.15;;;4.41;49.08
73518;BME280;61766;60.318;25.044;2024-02-26T08:49:51;101016.42;;;4.59;48.07
73518;BME280;61766;60.318;25.044;2024-02-26T08:52:16;101015.73;;;4.90;47.53
73518;BME280;61766;60.318;25.044;2024-02-26T08:54:42;101017.32;;;4.96;47.37
73518;BME280;61766;60.318;25.044;2024-02-26T08:57:07;101015.13;;;5.10;46.89
73518;BME280;61766;60.318;25.044;2024-02-26T08:59:32;101013.30;;;4.97;47.16
73518;BME280;61766;60.318;25.044;2024-02-26T09:01:57;101014.65;;;5.47;47.46
73518;BME280;61766;60.318;25.044;2024-02-26T09:04:22;101012.71;;;5.29;46.79
73518;BME280;61766;60.318;25.044;2024-02-26T09:06:48;101013.04;;;5.36;46.54
73518;BME280;61766;60.318;25.044;2024-02-26T09:09:12;101012.54;;;5.48;46.20
73518;BME280;61766;60.318;25.044;2024-02-26T09:11:38;101010.81;;;5.50;46.20
73518;BME280;61766;60.318;25.044;2024-02-26T09:14:03;101009.82;;;5.47;46.20
73518;BME280;61766;60.318;25.044;2024-02-26T09:16:29;101009.39;;;5.43;46.42
73518;BME280;61766;60.318;25.044;2024-02-26T09:18:54;101007.17;;;5.68;45.92
73518;BME280;61766;60.318;25.044;2024-02-26T09:21:19;101006.09;;;5.78;45.89
73518;BME280;61766;60.318;25.044;2024-02-26T09:23:44;101008.08;;;5.59;45.66
73518;BME280;61766;60.318;25.044;2024-02-26T09:26:09;101005.75;;;5.74;45.55
73518;BME280;61766;60.318;25.044;2024-02-26T09:28:34;101002.93;;;5.68;45.90
73518;BME280;61766;60.318;25.044;2024-02-26T09:31:00;101002.55;;;5.65;45.83
73518;BME280;61766;60.318;25.044;2024-02-26T09:33:25;101001.87;;;5.28;46.07
73518;BME280;61766;60.318;25.044;2024-02-26T09:35:50;101001.44;;;5.32;46.21
73518;BME280;61766;60.318;25.044;2024-02-26T09:38:15;101002.15;;;5.65;46.16
73518;BME280;61766;60.318;25.044;2024-02-26T09:40:40;101001.44;;;5.86;45.79
73518;BME280;61766;60.318;25.044;2024-02-26T09:43:08;101001.92;;;5.51;46.14
73518;BME280;61766;60.318;25.044;2024-02-26T09:45:32;100997.35;;;5.42;46.66
73518;BME280;61766;60.318;25.044;2024-02-26T09:47:58;100996.55;;;5.67;46.49
73518;BME280;61766;60.318;25.044;2024-02-26T09:50:22;100993.13;;;5.68;46.32
73518;BME280;61766;60.318;25.044;2024-02-26T09:52:47;100993.70;;;5.60;46.21
73518;BME280;61766;60.318;25.044;2024-02-26T09:55:12;100987.31;;;5.42;46.72
73518;BME280;61766;60.318;25.044;2024-02-26T09:57:37;100984.16;;;5.42;46.78
73518;BME280;61766;60.318;25.044;2024-02-26T10:00:03;100981.56;;;5.60;46.48
73518;BME280;61766;60.318;25.044;2024-02-26T10:02:28;100979.58;;;5.76;46.63
73518;BME280;61766;60.318;25.044;2024-02-26T10:04:53;100977.74;;;5.96;46.35
73518;BME280;61766;60.318;25.044;2024-02-26T10:07:18;100975.07;;;5.83;46.44
73518;BME280;61766;60.318;25.044;2024-02-26T10:09:43;100974.37;;;5.48;47.24
73518;BME280;61766;60.318;25.044;2024-02-26T10:12:10;100972.97;;;5.64;47.04
73518;BME280;61766;60.318;25.044;2024-02-26T10:14:34;100971.90;;;5.44;47.73
73518;BME280;61766;60.318;25.044;2024-02-26T10:16:59;100967.48;;;5.51;47.92
73518;BME280;61766;60.318;25.044;2024-02-26T10:19:29;100962.65;;;5.82;47.36
73518;BME280;61766;60.318;25.044;2024-02-26T10:21:49;100960.55;;;5.74;47.02
73518;BME280;61766;60.318;25.044;2024-02-26T10:24:16;100962.12;;;5.75;47.24
73518;BME280;61766;60.318;25.044;2024-02-26T10:29:05;100962.61;;;5.54;47.72
73518;BME280;61766;60.318;25.044;2024-02-26T10:31:30;100959.93;;;5.81;47.31
73518;BME280;61766;60.318;25.044;2024-02-26T10:33:58;100954.04;;;5.14;48.06
73518;BME280;61766;60.318;25.044;2024-02-26T10:36:20;100949.91;;;5.32;48.36
73518;BME280;61766;60.318;25.044;2024-02-26T10:38:45;100946.58;;;5.68;48.93
73518;BME280;61766;60.318;25.044;2024-02-26T10:41:13;100943.20;;;5.78;48.51
73518;BME280;61766;60.318;25.044;2024-02-26T10:43:35;100943.50;;;5.57;48.13
73518;BME280;61766;60.318;25.044;2024-02-26T10:46:01;100937.98;;;5.88;47.60
73518;BME280;61766;60.318;25.044;2024-02-26T10:48:26;100938.52;;;5.88;47.47
73518;BME280;61766;60.318;25.044;2024-02-26T10:50:51;100939.45;;;5.77;47.32
73518;BME280;61766;60.318;25.044;2024-02-26T10:53:17;100939.21;;;5.82;47.14
73518;BME280;61766;60.318;25.044;2024-02-26T10:55:42;100936.14;;;5.79;47.66
73518;BME280;61766;60.318;25.044;2024-02-26T10:58:07;100933.37;;;5.79;47.79
73518;BME280;61766;60.318;25.044;2024-02-26T11:00:32;100927.95;;;5.80;47.24
73518;BME280;61766;60.318;25.044;2024-02-26T11:02:57;100931.13;;;6.01;47.12
73518;BME280;61766;60.318;25.044;2024-02-26T11:05:22;100930.89;;;5.57;47.90
73518;BME280;61766;60.318;25.044;2024-02-26T11:07:47;100929.31;;;5.61;47.83
73518;BME280;61766;60.318;25.044;2024-02-26T11:10:14;100929.26;;;5.80;48.14
73518;BME280;61766;60.318;25.044;2024-02-26T11:12:38;100933.34;;;5.44;48.35
73518;BME280;61766;60.318;25.044;2024-02-26T11:15:03;100936.16;;;5.43;48.60
73518;BME280;61766;60.318;25.044;2024-02-26T11:17:30;100936.51;;;5.42;48.59
73518;BME280;61766;60.318;25.044;2024-02-26T11:19:55;100931.50;;;5.88;47.98
73518;BME280;61766;60.318;25.044;2024-02-26T11:22:18;100930.76;;;6.01;47.38
73518;BME280;61766;60.318;25.044;2024-02-26T11:24:43;100929.36;;;5.00;47.13
73518;BME280;61766;60.318;25.044;2024-02-26T11:27:09;100929.09;;;6.10;46.45
73518;BME280;61766;60.318;25.044;2024-02-26T11:29:38;100929.04;;;6.31;46.30
73518;BME280;61766;60.318;25.044;2024-02-26T11:31:59;100928.82;;;6.11;46.51
73518;BME280;61766;60.318;25.044;2024-02-26T11:34:23;100935.75;;;5.65;47.29
73518;BME280;61766;60.318;25.044;2024-02-26T11:36:49;100934.85;;;5.82;47.22
73518;BME280;61766;60.318;25.044;2024-02-26T11:39:14;100937.77;;;6.13;47.27
73518;BME280;61766;60.318;25.044;2024-02-26T11:41:40;100937.53;;;5.98;47.22
73518;BME280;61766;60.318;25.044;2024-02-26T11:44:05;100937.00;;;6.03;46.82
73518;BME280;61766;60.318;25.044;2024-02-26T11:46:30;100936.48;;;5.79;47.25
73518;BME280;61766;60.318;25.044;2024-02-26T11:48:56;100937.67;;;5.84;48.16
73518;BME280;61766;60.318;25.044;2024-02-26T11:51:24;100942.07;;;5.41;48.22
73518;BME280;61766;60.318;25.044;2024-02-26T11:53:50;100942.37;;;5.85;47.49
73518;BME280;61766;60.318;25.044;2024-02-26T11:56:21;100956.75;;;5.75;47.27
73518;BME280;61766;60.318;25.044;2024-02-26T11:58:35;100958.85;;;5.58;47.69
73518;BME280;61766;60.318;25.044;2024-02-26T12:01:02;100960.80;;;5.84;47.06
73518;BME280;61766;60.318;25.044;2024-02-26T12:03:25;100958.03;;;5.74;46.99
73518;BME280;61766;60.318;25.044;2024-02-26T12:05:51;100951.47;;;6.11;46.46
73518;BME280;61766;60.318;25.044;2024-02-26T12:08:15;100950.59;;;5.94;46.26
73518;BME280;61766;60.318;25.044;2024-02-26T12:10:41;100948.48;;;5.92;45.78
73518;BME280;61766;60.318;25.044;2024-02-26T12:13:10;100947.63;;;6.11;45.29
73518;BME280;61766;60.318;25.044;2024-02-26T12:15:36;100949.22;;;6.15;45.04
73518;BME280;61766;60.318;25.044;2024-02-26T12:17:56;100953.08;;;6.49;44.45
73518;BME280;61766;60.318;25.044;2024-02-26T12:20:22;100955.64;;;5.90;44.79
73518;BME280;61766;60.318;25.044;2024-02-26T12:22:49;100955.41;;;5.82;45.26
73518;BME280;61766;60.318;25.044;2024-02-26T12:25:12;100952.34;;;5.98;44.82
73518;BME280;61766;60.318;25.044;2024-02-26T12:27:36;100948.82;;;6.40;44.53
73518;BME280;61766;60.318;25.044;2024-02-26T12:30:02;100947.44;;;6.32;44.14
73518;BME280;61766;60.318;25.044;2024-02-26T12:32:27;100944.35;;;6.48;43.84
73518;BME280;61766;60.318;25.044;2024-02-26T12:34:52;100939.53;;;6.52;43.71
73518;BME280;61766;60.318;25.044;2024-02-26T12:37:17;100937.95;;;6.25;44.27
73518;BME280;61766;60.318;25.044;2024-02-26T12:39:42;100935.75;;;6.16;44.63
73518;BME280;61766;60.318;25.044;2024-02-26T12:42:08;100935.35;;;6.62;44.34
73518;BME280;61766;60.318;25.044;2024-02-26T12:44:32;100932.92;;;6.46;43.98